Carnival Splendor — 3EUS — position and weather

sailwx.info

Track history (hours):
 
Tides and Currents Weather Stations Pressure Air Temp Water Temp Dewpoint Dewpoint Depression Visibility Wind Speed Wind Dir Waves Ship Positions

Carnival Splendor

Last reported at 2015-Apr-15 01:00 UTC. Time now 2015-Apr-18 19:21 UTC.
Position N 20°12' W 068°00'.

Length 289 m; draft 8.3 m.

Type: Ship. MMSI: 372808000.

Wind from 060 at 28 knots

Waves 2.0 meters (7 feet)

Barometer 1018.0 mb
Air temperature 25.0 ° C
Visibility: greater than 27.0 NM
Dewpoint 19.0 ° C
Water temperature 26.0 ° C

Date/timePositionNaut miles runAvg speedWind from/ knotsBaromVisibWave heightAir tempDewpointWater temp
2015-Apr-15 01:00N 20°12' W 068°00'20618.8 060 / 281018.027.0 2.025.019.026.0
2015-Apr-14 14:00N 22°12' W 071°00'50613.5 080 / 211021.010.8 2.026.020.026.0
2015-Apr-13 00:25N 26°17' W 079°05'1921.7
2015-Apr-12 23:33N 26°08' W 079°23'2222.5
2015-Apr-12 22:33N 25°57' W 079°45'2019.8
2015-Apr-12 21:33N 25°47' W 080°04'6 6.3
2015-Apr-12 20:32N 25°47' W 080°11'0 0.4
2015-Apr-12 19:20N 25°47' W 080°10'0 0.0
2015-Apr-12 18:31N 25°47' W 080°10'0 0.0
2015-Apr-12 17:22N 25°47' W 080°10'0 0.0
2015-Apr-12 16:31N 25°47' W 080°10'0 0.0
2015-Apr-12 15:21N 25°47' W 080°10'0 0.0
2015-Apr-12 14:33N 25°47' W 080°10'0 0.0
2015-Apr-12 13:29N 25°47' W 080°10'0 0.0
2015-Apr-12 12:20N 25°47' W 080°10'0 0.0
2015-Apr-12 11:08N 25°47' W 080°10'1 1.0
2015-Apr-12 10:32N 25°46' W 080°10'9 9.1
2015-Apr-12 09:34N 25°44' W 079°60'1913.8
2015-Apr-12 08:12N 25°26' W 079°57'27816.1
2015-Apr-11 15:00N 22°54' W 084°12'31613.2 120 / 121017.010.8 0.527.021.027.0
2015-Apr-10 15:00N 18°42' W 087°36'104 8.7 110 / 221015.010.8 0.527.021.028.0
2015-Apr-10 03:00N 17°06' W 086°54'   070 / 201012.027.0 1.527.020.027.0
2015-Apr-07 22:33N 20°29' W 087°00'2 1.4
2015-Apr-07 21:30N 20°29' W 086°59'0 0.0
2015-Apr-07 20:30N 20°29' W 086°59'0 0.0
2015-Apr-07 19:26N 20°29' W 086°59'0 0.0
2015-Apr-07 18:32N 20°29' W 086°59'0 0.0
2015-Apr-07 17:32N 20°29' W 086°59'0 0.0
2015-Apr-07 16:31N 20°29' W 086°59'0 0.0
2015-Apr-07 15:31N 20°29' W 086°59'0 0.0
2015-Apr-07 14:30N 20°29' W 086°59'0 0.0
2015-Apr-07 13:27N 20°29' W 086°59'0 0.1
2015-Apr-07 12:33N 20°29' W 086°59'1 1.3
2015-Apr-07 11:33N 20°30' W 086°60'10712.4
2015-Apr-07 03:00N 21°48' W 085°42'21614.4 080 / 131017.010.8 1.525.021.026.0
2015-Apr-06 12:00N 23°24' W 082°12'17613.9 100 / 24 27.0 2.025.021.026.0
2015-Apr-05 23:19N 25°29' W 079°57'1013.9
2015-Apr-05 22:33N 25°40' W 079°58'1110.6
2015-Apr-05 21:33N 25°46' W 080°08'2 2.0
2015-Apr-05 20:22N 25°47' W 080°10'0 0.0
2015-Apr-05 19:31N 25°47' W 080°10'0 0.0
2015-Apr-05 18:23N 25°47' W 080°10'0 0.0
2015-Apr-05 17:32N 25°47' W 080°10'0 0.0
2015-Apr-05 16:25N 25°47' W 080°10'0 0.0
2015-Apr-05 15:31N 25°47' W 080°10'0 0.0
2015-Apr-05 14:27N 25°47' W 080°10'0 0.0
2015-Apr-05 13:33N 25°47' W 080°10'0 0.0
2015-Apr-05 12:27N 25°47' W 080°10'0 0.0
2015-Apr-05 11:32N 25°47' W 080°10'1 0.7
2015-Apr-05 10:33N 25°47' W 080°11'8 7.7
2015-Apr-05 09:33N 25°47' W 080°02'1212.0
2015-Apr-05 08:33N 25°53' W 079°51'1414.3
2015-Apr-05 07:33N 26°01' W 079°37'1615.5
2015-Apr-05 06:33N 26°09' W 079°23'1918.5
2015-Apr-05 05:33N 26°18' W 079°05'1918.9
2015-Apr-05 04:33N 26°12' W 078°45'6518.9
2015-Apr-05 01:07N 25°49' W 077°37'  
Track history (hours):
 
Tides and Currents Weather Stations Pressure Air Temp Water Temp Dewpoint Dewpoint Depression Visibility Wind Speed Wind Dir Waves Ship Positions

Carnival Splendor

Last reported at 2015-Apr-15 01:00 UTC. Time now 2015-Apr-18 19:21 UTC.
Position N 20°12' W 068°00'.

Length 289 m; draft 8.3 m.

Type: Ship. MMSI: 372808000.

Wind from 060 at 28 knots

Waves 2.0 meters (7 feet)

Barometer 1018.0 mb
Air temperature 25.0 ° C
Visibility: greater than 27.0 NM
Dewpoint 19.0 ° C
Water temperature 26.0 ° C

Date/timePositionNaut miles runAvg speedWind from/ knotsBaromVisibWave heightAir tempDewpointWater temp
2015-Apr-15 01:00N 20°12' W 068°00'20618.8 060 / 281018.027.0 2.025.019.026.0
2015-Apr-14 14:00N 22°12' W 071°00'50613.5 080 / 211021.010.8 2.026.020.026.0
2015-Apr-13 00:25N 26°17' W 079°05'1921.7
2015-Apr-12 23:33N 26°08' W 079°23'2222.5
2015-Apr-12 22:33N 25°57' W 079°45'2019.8
2015-Apr-12 21:33N 25°47' W 080°04'6 6.3
2015-Apr-12 20:32N 25°47' W 080°11'0 0.4
2015-Apr-12 19:20N 25°47' W 080°10'0 0.0
2015-Apr-12 18:31N 25°47' W 080°10'0 0.0
2015-Apr-12 17:22N 25°47' W 080°10'0 0.0
2015-Apr-12 16:31N 25°47' W 080°10'0 0.0
2015-Apr-12 15:21N 25°47' W 080°10'0 0.0
2015-Apr-12 14:33N 25°47' W 080°10'0 0.0
2015-Apr-12 13:29N 25°47' W 080°10'0 0.0
2015-Apr-12 12:20N 25°47' W 080°10'0 0.0
2015-Apr-12 11:08N 25°47' W 080°10'1 1.0
2015-Apr-12 10:32N 25°46' W 080°10'9 9.1
2015-Apr-12 09:34N 25°44' W 079°60'1913.8
2015-Apr-12 08:12N 25°26' W 079°57'27816.1
2015-Apr-11 15:00N 22°54' W 084°12'31613.2 120 / 121017.010.8 0.527.021.027.0
2015-Apr-10 15:00N 18°42' W 087°36'104 8.7 110 / 221015.010.8 0.527.021.028.0
2015-Apr-10 03:00N 17°06' W 086°54'   070 / 201012.027.0 1.527.020.027.0
2015-Apr-07 22:33N 20°29' W 087°00'2 1.4
2015-Apr-07 21:30N 20°29' W 086°59'0 0.0
2015-Apr-07 20:30N 20°29' W 086°59'0 0.0
2015-Apr-07 19:26N 20°29' W 086°59'0 0.0
2015-Apr-07 18:32N 20°29' W 086°59'0 0.0
2015-Apr-07 17:32N 20°29' W 086°59'0 0.0
2015-Apr-07 16:31N 20°29' W 086°59'0 0.0
2015-Apr-07 15:31N 20°29' W 086°59'0 0.0
2015-Apr-07 14:30N 20°29' W 086°59'0 0.0
2015-Apr-07 13:27N 20°29' W 086°59'0 0.1
2015-Apr-07 12:33N 20°29' W 086°59'1 1.3
2015-Apr-07 11:33N 20°30' W 086°60'10712.4
2015-Apr-07 03:00N 21°48' W 085°42'21614.4 080 / 131017.010.8 1.525.021.026.0
2015-Apr-06 12:00N 23°24' W 082°12'17613.9 100 / 24 27.0 2.025.021.026.0
2015-Apr-05 23:19N 25°29' W 079°57'1013.9
2015-Apr-05 22:33N 25°40' W 079°58'1110.6
2015-Apr-05 21:33N 25°46' W 080°08'2 2.0
2015-Apr-05 20:22N 25°47' W 080°10'0 0.0
2015-Apr-05 19:31N 25°47' W 080°10'0 0.0
2015-Apr-05 18:23N 25°47' W 080°10'0 0.0
2015-Apr-05 17:32N 25°47' W 080°10'0 0.0
2015-Apr-05 16:25N 25°47' W 080°10'0 0.0
2015-Apr-05 15:31N 25°47' W 080°10'0 0.0
2015-Apr-05 14:27N 25°47' W 080°10'0 0.0
2015-Apr-05 13:33N 25°47' W 080°10'0 0.0
2015-Apr-05 12:27N 25°47' W 080°10'0 0.0
2015-Apr-05 11:32N 25°47' W 080°10'1 0.7
2015-Apr-05 10:33N 25°47' W 080°11'8 7.7
2015-Apr-05 09:33N 25°47' W 080°02'1212.0
2015-Apr-05 08:33N 25°53' W 079°51'1414.3
2015-Apr-05 07:33N 26°01' W 079°37'1615.5
2015-Apr-05 06:33N 26°09' W 079°23'1918.5
2015-Apr-05 05:33N 26°18' W 079°05'1918.9
2015-Apr-05 04:33N 26°12' W 078°45'6518.9
2015-Apr-05 01:07N 25°49' W 077°37'  

Dump ship's entire track history